Terminal Aerodrome Forecast
Issued by NWS Charleston, WV

Current Version | Previous Version | Graphics & Text | Print | Product List | Glossary On
Versions: 1 2 3 4 5 6 7 8 9 10 11 12 13 14 15 16 17 18 19 20 21 22 23 24 25 26 27 28 29 30 31
000
FTUS41 KRLX 011409 AAA
TAFBKW
TAF AMD
KBKW 011409Z 0114/0212 27008KT P6SM BKN006
     FM011530 29006KT P6SM BKN015
     FM011630 29006KT P6SM SCT025
     FM012200 29006KT P6SM VCTS BKN040CB
     FM020600 24004KT P6SM -SHRA BKN030=

USA.gov is the U.S. government's official web portal to all federal, state and local government web resources and services.